sensor_id;sensor_type;location;lat;lon;timestamp;P1;durP1;ratioP1;P2;durP2;ratioP2
46318;SDS011;32042;50.916;2.926;2024-03-22T00:01:18;17.87;;;11.50;;
46318;SDS011;32042;50.916;2.926;2024-03-22T00:03:45;20.63;;;12.67;;
46318;SDS011;32042;50.916;2.926;2024-03-22T00:06:11;17.13;;;12.53;;
46318;SDS011;32042;50.916;2.926;2024-03-22T00:08:38;16.07;;;10.23;;
46318;SDS011;32042;50.916;2.926;2024-03-22T00:11:04;19.13;;;11.63;;
46318;SDS011;32042;50.916;2.926;2024-03-22T00:13:30;19.00;;;11.50;;
46318;SDS011;32042;50.916;2.926;2024-03-22T00:15:56;12.33;;;10.10;;
46318;SDS011;32042;50.916;2.926;2024-03-22T00:18:22;16.53;;;10.53;;
46318;SDS011;32042;50.916;2.926;2024-03-22T00:20:49;13.20;;;9.87;;
46318;SDS011;32042;50.916;2.926;2024-03-22T00:23:15;12.87;;;9.77;;
46318;SDS011;32042;50.916;2.926;2024-03-22T00:25:41;9.73;;;7.97;;
46318;SDS011;32042;50.916;2.926;2024-03-22T00:28:07;16.97;;;10.90;;
46318;SDS011;32042;50.916;2.926;2024-03-22T00:30:33;12.93;;;9.73;;
46318;SDS011;32042;50.916;2.926;2024-03-22T00:32:59;12.97;;;10.60;;
46318;SDS011;32042;50.916;2.926;2024-03-22T00:35:25;13.10;;;10.37;;
46318;SDS011;32042;50.916;2.926;2024-03-22T00:37:51;13.87;;;9.33;;
46318;SDS011;32042;50.916;2.926;2024-03-22T00:40:17;13.33;;;8.63;;
46318;SDS011;32042;50.916;2.926;2024-03-22T00:42:43;14.70;;;10.10;;
46318;SDS011;32042;50.916;2.926;2024-03-22T00:45:09;16.33;;;10.77;;
46318;SDS011;32042;50.916;2.926;2024-03-22T00:47:35;16.07;;;11.23;;
46318;SDS011;32042;50.916;2.926;2024-03-22T00:50:01;14.90;;;10.50;;
46318;SDS011;32042;50.916;2.926;2024-03-22T00:52:27;17.87;;;11.93;;
46318;SDS011;32042;50.916;2.926;2024-03-22T00:54:54;17.23;;;10.83;;
46318;SDS011;32042;50.916;2.926;2024-03-22T00:57:20;15.47;;;10.60;;
46318;SDS011;32042;50.916;2.926;2024-03-22T00:59:46;14.63;;;9.53;;
46318;SDS011;32042;50.916;2.926;2024-03-22T01:02:12;15.53;;;10.87;;
46318;SDS011;32042;50.916;2.926;2024-03-22T01:04:38;15.03;;;10.67;;
46318;SDS011;32042;50.916;2.926;2024-03-22T01:07:05;17.13;;;10.53;;
46318;SDS011;32042;50.916;2.926;2024-03-22T01:09:32;14.53;;;9.27;;
46318;SDS011;32042;50.916;2.926;2024-03-22T01:11:58;19.00;;;11.17;;
46318;SDS011;32042;50.916;2.926;2024-03-22T01:14:24;19.13;;;10.73;;
46318;SDS011;32042;50.916;2.926;2024-03-22T01:16:51;16.80;;;11.30;;
46318;SDS011;32042;50.916;2.926;2024-03-22T01:19:17;16.33;;;10.47;;
46318;SDS011;32042;50.916;2.926;2024-03-22T01:21:43;17.50;;;11.43;;
46318;SDS011;32042;50.916;2.926;2024-03-22T01:24:09;15.77;;;12.13;;
46318;SDS011;32042;50.916;2.926;2024-03-22T01:26:35;16.93;;;11.47;;
46318;SDS011;32042;50.916;2.926;2024-03-22T01:29:01;17.13;;;10.73;;
46318;SDS011;32042;50.916;2.926;2024-03-22T01:31:27;21.40;;;12.20;;
46318;SDS011;32042;50.916;2.926;2024-03-22T01:33:53;17.80;;;12.73;;
46318;SDS011;32042;50.916;2.926;2024-03-22T01:36:19;16.57;;;11.57;;
46318;SDS011;32042;50.916;2.926;2024-03-22T01:38:45;19.57;;;12.93;;
46318;SDS011;32042;50.916;2.926;2024-03-22T01:41:11;17.70;;;12.73;;
46318;SDS011;32042;50.916;2.926;2024-03-22T01:43:37;15.50;;;11.83;;
46318;SDS011;32042;50.916;2.926;2024-03-22T01:46:04;19.77;;;12.60;;
46318;SDS011;32042;50.916;2.926;2024-03-22T01:48:30;16.20;;;12.43;;
46318;SDS011;32042;50.916;2.926;2024-03-22T01:50:57;17.57;;;11.67;;
46318;SDS011;32042;50.916;2.926;2024-03-22T01:53:23;22.23;;;12.33;;
46318;SDS011;32042;50.916;2.926;2024-03-22T01:55:49;15.13;;;10.70;;
46318;SDS011;32042;50.916;2.926;2024-03-22T01:58:16;19.73;;;13.90;;
46318;SDS011;32042;50.916;2.926;2024-03-22T02:00:42;20.27;;;12.43;;
46318;SDS011;32042;50.916;2.926;2024-03-22T02:03:08;17.80;;;13.03;;
46318;SDS011;32042;50.916;2.926;2024-03-22T02:05:34;17.10;;;11.33;;
46318;SDS011;32042;50.916;2.926;2024-03-22T02:08:00;22.50;;;12.77;;
46318;SDS011;32042;50.916;2.926;2024-03-22T02:10:27;17.67;;;12.77;;
46318;SDS011;32042;50.916;2.926;2024-03-22T02:12:53;20.13;;;13.00;;
46318;SDS011;32042;50.916;2.926;2024-03-22T02:15:19;20.07;;;13.47;;
46318;SDS011;32042;50.916;2.926;2024-03-22T02:17:45;20.90;;;13.93;;
46318;SDS011;32042;50.916;2.926;2024-03-22T02:20:11;20.07;;;12.80;;
46318;SDS011;32042;50.916;2.926;2024-03-22T02:22:37;20.73;;;13.60;;
46318;SDS011;32042;50.916;2.926;2024-03-22T02:25:04;18.40;;;12.30;;
46318;SDS011;32042;50.916;2.926;2024-03-22T02:27:30;19.13;;;13.10;;
46318;SDS011;32042;50.916;2.926;2024-03-22T02:29:56;22.23;;;12.47;;
46318;SDS011;32042;50.916;2.926;2024-03-22T02:32:22;19.13;;;11.97;;
46318;SDS011;32042;50.916;2.926;2024-03-22T02:34:48;19.63;;;13.27;;
46318;SDS011;32042;50.916;2.926;2024-03-22T02:37:14;19.27;;;11.17;;
46318;SDS011;32042;50.916;2.926;2024-03-22T02:39:40;16.77;;;12.60;;
46318;SDS011;32042;50.916;2.926;2024-03-22T02:42:06;16.90;;;12.13;;
46318;SDS011;32042;50.916;2.926;2024-03-22T02:44:32;17.70;;;12.33;;
46318;SDS011;32042;50.916;2.926;2024-03-22T02:46:58;14.80;;;11.17;;
46318;SDS011;32042;50.916;2.926;2024-03-22T02:49:25;11.53;;;10.33;;
46318;SDS011;32042;50.916;2.926;2024-03-22T02:51:51;16.83;;;11.43;;
46318;SDS011;32042;50.916;2.926;2024-03-22T02:54:17;19.23;;;10.60;;
46318;SDS011;32042;50.916;2.926;2024-03-22T02:56:44;15.67;;;11.07;;
46318;SDS011;32042;50.916;2.926;2024-03-22T02:59:10;15.57;;;11.20;;
46318;SDS011;32042;50.916;2.926;2024-03-22T03:01:36;16.00;;;10.50;;
46318;SDS011;32042;50.916;2.926;2024-03-22T03:04:02;13.97;;;10.37;;
46318;SDS011;32042;50.916;2.926;2024-03-22T03:06:28;13.90;;;10.83;;
46318;SDS011;32042;50.916;2.926;2024-03-22T03:08:55;11.87;;;9.87;;
46318;SDS011;32042;50.916;2.926;2024-03-22T03:11:21;17.73;;;10.50;;
46318;SDS011;32042;50.916;2.926;2024-03-22T03:13:47;13.97;;;9.93;;
46318;SDS011;32042;50.916;2.926;2024-03-22T03:16:13;15.77;;;9.50;;
46318;SDS011;32042;50.916;2.926;2024-03-22T03:18:39;14.47;;;9.60;;
46318;SDS011;32042;50.916;2.926;2024-03-22T03:21:06;12.83;;;8.97;;
46318;SDS011;32042;50.916;2.926;2024-03-22T03:23:33;10.33;;;7.83;;
46318;SDS011;32042;50.916;2.926;2024-03-22T03:25:59;9.23;;;7.00;;
46318;SDS011;32042;50.916;2.926;2024-03-22T03:28:25;9.83;;;6.97;;
46318;SDS011;32042;50.916;2.926;2024-03-22T03:30:52;7.50;;;6.40;;
46318;SDS011;32042;50.916;2.926;2024-03-22T03:33:18;9.30;;;7.00;;
46318;SDS011;32042;50.916;2.926;2024-03-22T03:35:47;8.53;;;5.57;;
46318;SDS011;32042;50.916;2.926;2024-03-22T03:38:13;6.07;;;4.87;;
46318;SDS011;32042;50.916;2.926;2024-03-22T03:40:39;10.23;;;5.57;;
46318;SDS011;32042;50.916;2.926;2024-03-22T03:43:05;7.90;;;4.90;;
46318;SDS011;32042;50.916;2.926;2024-03-22T03:45:31;7.77;;;5.23;;
46318;SDS011;32042;50.916;2.926;2024-03-22T03:47:57;6.73;;;5.40;;
46318;SDS011;32042;50.916;2.926;2024-03-22T03:50:23;9.70;;;5.57;;
46318;SDS011;32042;50.916;2.926;2024-03-22T03:52:49;6.37;;;5.00;;
46318;SDS011;32042;50.916;2.926;2024-03-22T03:55:15;7.23;;;5.30;;
46318;SDS011;32042;50.916;2.926;2024-03-22T03:57:41;10.80;;;6.27;;
46318;SDS011;32042;50.916;2.926;2024-03-22T04:00:07;8.87;;;5.50;;
46318;SDS011;32042;50.916;2.926;2024-03-22T04:02:34;6.07;;;5.40;;
46318;SDS011;32042;50.916;2.926;2024-03-22T04:05:00;9.30;;;5.37;;
46318;SDS011;32042;50.916;2.926;2024-03-22T04:07:26;7.33;;;5.10;;
46318;SDS011;32042;50.916;2.926;2024-03-22T04:09:54;5.93;;;4.13;;
46318;SDS011;32042;50.916;2.926;2024-03-22T04:12:20;7.00;;;4.97;;
46318;SDS011;32042;50.916;2.926;2024-03-22T04:14:46;6.90;;;5.03;;
46318;SDS011;32042;50.916;2.926;2024-03-22T04:17:12;5.70;;;4.77;;
46318;SDS011;32042;50.916;2.926;2024-03-22T04:19:38;8.23;;;5.00;;
46318;SDS011;32042;50.916;2.926;2024-03-22T04:22:04;11.33;;;5.83;;
46318;SDS011;32042;50.916;2.926;2024-03-22T04:24:30;7.77;;;4.97;;
46318;SDS011;32042;50.916;2.926;2024-03-22T04:26:56;9.87;;;5.63;;
46318;SDS011;32042;50.916;2.926;2024-03-22T04:29:22;8.07;;;4.93;;
46318;SDS011;32042;50.916;2.926;2024-03-22T04:31:48;10.73;;;7.13;;
46318;SDS011;32042;50.916;2.926;2024-03-22T04:34:15;9.97;;;6.47;;
46318;SDS011;32042;50.916;2.926;2024-03-22T04:36:41;9.00;;;6.57;;
46318;SDS011;32042;50.916;2.926;2024-03-22T04:39:07;10.10;;;6.27;;
46318;SDS011;32042;50.916;2.926;2024-03-22T04:41:34;9.57;;;6.47;;
46318;SDS011;32042;50.916;2.926;2024-03-22T04:44:00;10.50;;;6.83;;
46318;SDS011;32042;50.916;2.926;2024-03-22T04:46:26;9.50;;;6.57;;
46318;SDS011;32042;50.916;2.926;2024-03-22T04:48:53;10.00;;;6.87;;
46318;SDS011;32042;50.916;2.926;2024-03-22T04:51:19;8.30;;;7.13;;
46318;SDS011;32042;50.916;2.926;2024-03-22T04:53:45;12.83;;;6.77;;
46318;SDS011;32042;50.916;2.926;2024-03-22T04:56:11;8.20;;;7.23;;
46318;SDS011;32042;50.916;2.926;2024-03-22T04:58:37;8.30;;;5.93;;
46318;SDS011;32042;50.916;2.926;2024-03-22T05:01:03;13.90;;;6.67;;
46318;SDS011;32042;50.916;2.926;2024-03-22T05:03:29;9.47;;;7.03;;
46318;SDS011;32042;50.916;2.926;2024-03-22T05:05:56;10.53;;;7.23;;
46318;SDS011;32042;50.916;2.926;2024-03-22T05:08:23;8.77;;;5.90;;
46318;SDS011;32042;50.916;2.926;2024-03-22T05:10:49;8.97;;;6.97;;
46318;SDS011;32042;50.916;2.926;2024-03-22T05:13:15;8.33;;;6.53;;
46318;SDS011;32042;50.916;2.926;2024-03-22T05:15:41;8.23;;;6.40;;
46318;SDS011;32042;50.916;2.926;2024-03-22T05:18:07;10.63;;;6.77;;
46318;SDS011;32042;50.916;2.926;2024-03-22T05:20:33;8.60;;;5.53;;
46318;SDS011;32042;50.916;2.926;2024-03-22T05:22:59;9.03;;;6.43;;
46318;SDS011;32042;50.916;2.926;2024-03-22T05:25:25;11.50;;;6.33;;
46318;SDS011;32042;50.916;2.926;2024-03-22T05:27:51;8.27;;;6.07;;
46318;SDS011;32042;50.916;2.926;2024-03-22T05:30:17;9.13;;;5.63;;
46318;SDS011;32042;50.916;2.926;2024-03-22T05:32:44;7.50;;;5.77;;
46318;SDS011;32042;50.916;2.926;2024-03-22T05:35:10;7.17;;;5.70;;
46318;SDS011;32042;50.916;2.926;2024-03-22T05:37:36;7.77;;;5.83;;
46318;SDS011;32042;50.916;2.926;2024-03-22T05:40:02;9.00;;;6.17;;
46318;SDS011;32042;50.916;2.926;2024-03-22T05:42:48;8.17;;;6.10;;
46318;SDS011;32042;50.916;2.926;2024-03-22T05:45:14;9.10;;;5.87;;
46318;SDS011;32042;50.916;2.926;2024-03-22T05:47:40;8.97;;;5.83;;
46318;SDS011;32042;50.916;2.926;2024-03-22T05:50:07;9.30;;;5.93;;
46318;SDS011;32042;50.916;2.926;2024-03-22T05:52:33;8.47;;;6.70;;
46318;SDS011;32042;50.916;2.926;2024-03-22T05:54:59;8.40;;;5.80;;
46318;SDS011;32042;50.916;2.926;2024-03-22T05:57:25;7.30;;;6.03;;
46318;SDS011;32042;50.916;2.926;2024-03-22T05:59:51;6.83;;;5.63;;
46318;SDS011;32042;50.916;2.926;2024-03-22T06:02:18;6.60;;;5.13;;
46318;SDS011;32042;50.916;2.926;2024-03-22T06:04:44;8.80;;;6.10;;
46318;SDS011;32042;50.916;2.926;2024-03-22T06:07:10;11.33;;;6.03;;
46318;SDS011;32042;50.916;2.926;2024-03-22T06:09:37;7.40;;;5.77;;
46318;SDS011;32042;50.916;2.926;2024-03-22T06:12:10;7.20;;;5.27;;
46318;SDS011;32042;50.916;2.926;2024-03-22T06:14:36;7.23;;;6.47;;
46318;SDS011;32042;50.916;2.926;2024-03-22T06:17:06;10.70;;;5.90;;
46318;SDS011;32042;50.916;2.926;2024-03-22T06:19:32;8.60;;;6.20;;
46318;SDS011;32042;50.916;2.926;2024-03-22T06:21:58;8.97;;;5.57;;
46318;SDS011;32042;50.916;2.926;2024-03-22T06:24:27;9.00;;;6.03;;
46318;SDS011;32042;50.916;2.926;2024-03-22T06:26:54;10.30;;;5.60;;
46318;SDS011;32042;50.916;2.926;2024-03-22T06:29:20;11.47;;;6.60;;
46318;SDS011;32042;50.916;2.926;2024-03-22T06:31:46;10.50;;;7.50;;
46318;SDS011;32042;50.916;2.926;2024-03-22T06:34:12;13.77;;;8.03;;
46318;SDS011;32042;50.916;2.926;2024-03-22T06:36:38;16.63;;;7.70;;
46318;SDS011;32042;50.916;2.926;2024-03-22T06:39:04;15.57;;;8.10;;
46318;SDS011;32042;50.916;2.926;2024-03-22T06:41:33;13.67;;;8.60;;
46318;SDS011;32042;50.916;2.926;2024-03-22T06:43:59;16.23;;;8.87;;
46318;SDS011;32042;50.916;2.926;2024-03-22T06:46:26;17.90;;;8.57;;
46318;SDS011;32042;50.916;2.926;2024-03-22T06:48:53;15.33;;;9.43;;
46318;SDS011;32042;50.916;2.926;2024-03-22T06:51:19;16.67;;;9.23;;
46318;SDS011;32042;50.916;2.926;2024-03-22T06:53:45;13.40;;;9.13;;
46318;SDS011;32042;50.916;2.926;2024-03-22T06:56:12;11.57;;;8.77;;
46318;SDS011;32042;50.916;2.926;2024-03-22T06:58:39;18.27;;;10.60;;
46318;SDS011;32042;50.916;2.926;2024-03-22T07:01:05;17.53;;;10.30;;
46318;SDS011;32042;50.916;2.926;2024-03-22T07:03:31;12.20;;;9.13;;
46318;SDS011;32042;50.916;2.926;2024-03-22T07:05:59;16.40;;;8.80;;
46318;SDS011;32042;50.916;2.926;2024-03-22T07:08:28;17.57;;;7.93;;
46318;SDS011;32042;50.916;2.926;2024-03-22T07:10:54;14.77;;;8.83;;
46318;SDS011;32042;50.916;2.926;2024-03-22T07:13:20;15.50;;;6.97;;
46318;SDS011;32042;50.916;2.926;2024-03-22T07:15:46;16.00;;;8.63;;
46318;SDS011;32042;50.916;2.926;2024-03-22T07:18:13;13.70;;;9.07;;
46318;SDS011;32042;50.916;2.926;2024-03-22T07:20:39;14.77;;;7.97;;
46318;SDS011;32042;50.916;2.926;2024-03-22T07:23:05;16.67;;;9.73;;
46318;SDS011;32042;50.916;2.926;2024-03-22T07:25:31;16.30;;;8.30;;
46318;SDS011;32042;50.916;2.926;2024-03-22T07:27:57;10.90;;;7.77;;
46318;SDS011;32042;50.916;2.926;2024-03-22T07:30:24;8.33;;;5.77;;
46318;SDS011;32042;50.916;2.926;2024-03-22T07:32:50;15.27;;;7.17;;
46318;SDS011;32042;50.916;2.926;2024-03-22T07:35:16;8.87;;;6.67;;
46318;SDS011;32042;50.916;2.926;2024-03-22T07:37:42;17.93;;;6.70;;
46318;SDS011;32042;50.916;2.926;2024-03-22T07:40:09;13.70;;;6.87;;
46318;SDS011;32042;50.916;2.926;2024-03-22T07:42:35;8.73;;;7.33;;
46318;SDS011;32042;50.916;2.926;2024-03-22T07:45:02;12.77;;;8.57;;
46318;SDS011;32042;50.916;2.926;2024-03-22T07:47:29;16.87;;;8.60;;
46318;SDS011;32042;50.916;2.926;2024-03-22T07:49:55;13.00;;;6.70;;
46318;SDS011;32042;50.916;2.926;2024-03-22T07:52:21;11.00;;;5.97;;
46318;SDS011;32042;50.916;2.926;2024-03-22T07:54:49;12.07;;;7.00;;
46318;SDS011;32042;50.916;2.926;2024-03-22T07:57:15;11.97;;;5.90;;
46318;SDS011;32042;50.916;2.926;2024-03-22T07:59:41;9.40;;;5.77;;
46318;SDS011;32042;50.916;2.926;2024-03-22T08:02:09;11.87;;;5.47;;
46318;SDS011;32042;50.916;2.926;2024-03-22T08:04:35;9.33;;;5.20;;
46318;SDS011;32042;50.916;2.926;2024-03-22T08:07:01;11.27;;;5.20;;
46318;SDS011;32042;50.916;2.926;2024-03-22T08:09:28;11.03;;;6.03;;
46318;SDS011;32042;50.916;2.926;2024-03-22T08:11:54;10.67;;;4.50;;
46318;SDS011;32042;50.916;2.926;2024-03-22T08:14:20;11.57;;;4.63;;
46318;SDS011;32042;50.916;2.926;2024-03-22T08:16:46;7.93;;;4.27;;
46318;SDS011;32042;50.916;2.926;2024-03-22T08:19:12;9.50;;;4.60;;
46318;SDS011;32042;50.916;2.926;2024-03-22T08:21:38;9.50;;;4.23;;
46318;SDS011;32042;50.916;2.926;2024-03-22T08:24:04;14.57;;;4.07;;
46318;SDS011;32042;50.916;2.926;2024-03-22T08:26:30;12.80;;;4.60;;
46318;SDS011;32042;50.916;2.926;2024-03-22T08:28:56;7.23;;;3.93;;
46318;SDS011;32042;50.916;2.926;2024-03-22T08:31:22;7.50;;;3.40;;
46318;SDS011;32042;50.916;2.926;2024-03-22T08:33:51;7.10;;;3.33;;
46318;SDS011;32042;50.916;2.926;2024-03-22T08:36:17;7.40;;;4.50;;
46318;SDS011;32042;50.916;2.926;2024-03-22T08:38:43;10.53;;;3.80;;
46318;SDS011;32042;50.916;2.926;2024-03-22T08:41:09;9.20;;;2.67;;
46318;SDS011;32042;50.916;2.926;2024-03-22T08:43:35;12.50;;;3.57;;
46318;SDS011;32042;50.916;2.926;2024-03-22T08:46:01;14.00;;;3.70;;
46318;SDS011;32042;50.916;2.926;2024-03-22T08:48:28;8.10;;;3.27;;
46318;SDS011;32042;50.916;2.926;2024-03-22T08:50:54;10.77;;;4.10;;
46318;SDS011;32042;50.916;2.926;2024-03-22T08:53:20;9.83;;;3.30;;
46318;SDS011;32042;50.916;2.926;2024-03-22T08:55:47;11.10;;;3.33;;
46318;SDS011;32042;50.916;2.926;2024-03-22T08:58:14;6.80;;;3.13;;
46318;SDS011;32042;50.916;2.926;2024-03-22T09:00:43;6.80;;;2.90;;
46318;SDS011;32042;50.916;2.926;2024-03-22T09:03:09;6.47;;;3.03;;
46318;SDS011;32042;50.916;2.926;2024-03-22T09:05:35;6.97;;;3.67;;
46318;SDS011;32042;50.916;2.926;2024-03-22T09:08:02;4.47;;;2.37;;
46318;SDS011;32042;50.916;2.926;2024-03-22T09:10:29;8.27;;;2.37;;
46318;SDS011;32042;50.916;2.926;2024-03-22T09:12:55;10.73;;;3.00;;
46318;SDS011;32042;50.916;2.926;2024-03-22T09:15:21;8.30;;;2.53;;
46318;SDS011;32042;50.916;2.926;2024-03-22T09:17:47;5.53;;;3.20;;
46318;SDS011;32042;50.916;2.926;2024-03-22T09:20:13;8.83;;;2.63;;
46318;SDS011;32042;50.916;2.926;2024-03-22T09:22:39;7.13;;;2.77;;
46318;SDS011;32042;50.916;2.926;2024-03-22T09:25:06;4.33;;;2.47;;
46318;SDS011;32042;50.916;2.926;2024-03-22T09:27:32;10.90;;;2.90;;
46318;SDS011;32042;50.916;2.926;2024-03-22T09:29:58;8.53;;;2.83;;
46318;SDS011;32042;50.916;2.926;2024-03-22T09:32:26;8.43;;;3.47;;
46318;SDS011;32042;50.916;2.926;2024-03-22T09:34:52;3.87;;;2.10;;
46318;SDS011;32042;50.916;2.926;2024-03-22T09:37:18;7.13;;;3.03;;
46318;SDS011;32042;50.916;2.926;2024-03-22T09:39:44;5.73;;;3.10;;
46318;SDS011;32042;50.916;2.926;2024-03-22T09:42:11;5.63;;;3.70;;
46318;SDS011;32042;50.916;2.926;2024-03-22T09:44:38;15.60;;;4.90;;
46318;SDS011;32042;50.916;2.926;2024-03-22T09:47:07;9.93;;;4.13;;
46318;SDS011;32042;50.916;2.926;2024-03-22T09:49:34;9.13;;;4.13;;
46318;SDS011;32042;50.916;2.926;2024-03-22T09:52:00;10.10;;;4.23;;
46318;SDS011;32042;50.916;2.926;2024-03-22T09:54:28;9.13;;;4.60;;
46318;SDS011;32042;50.916;2.926;2024-03-22T09:56:55;10.87;;;4.77;;
46318;SDS011;32042;50.916;2.926;2024-03-22T09:59:22;12.17;;;4.60;;
46318;SDS011;32042;50.916;2.926;2024-03-22T10:01:48;12.37;;;5.10;;
46318;SDS011;32042;50.916;2.926;2024-03-22T10:04:15;10.70;;;5.03;;
46318;SDS011;32042;50.916;2.926;2024-03-22T10:06:41;10.30;;;4.50;;
46318;SDS011;32042;50.916;2.926;2024-03-22T10:09:08;10.43;;;4.83;;
46318;SDS011;32042;50.916;2.926;2024-03-22T10:11:35;11.80;;;6.00;;
46318;SDS011;32042;50.916;2.926;2024-03-22T10:14:01;11.57;;;5.27;;
46318;SDS011;32042;50.916;2.926;2024-03-22T10:16:32;8.43;;;6.57;;
46318;SDS011;32042;50.916;2.926;2024-03-22T10:18:58;13.27;;;5.67;;
46318;SDS011;32042;50.916;2.926;2024-03-22T10:21:25;11.37;;;4.97;;
46318;SDS011;32042;50.916;2.926;2024-03-22T10:23:53;5.03;;;2.83;;
46318;SDS011;32042;50.916;2.926;2024-03-22T10:26:19;13.77;;;6.20;;
46318;SDS011;32042;50.916;2.926;2024-03-22T10:28:45;12.37;;;6.67;;
46318;SDS011;32042;50.916;2.926;2024-03-22T10:31:12;13.57;;;6.60;;
46318;SDS011;32042;50.916;2.926;2024-03-22T10:33:40;12.97;;;6.33;;
46318;SDS011;32042;50.916;2.926;2024-03-22T10:36:06;11.43;;;6.60;;
46318;SDS011;32042;50.916;2.926;2024-03-22T10:38:33;12.07;;;6.70;;
46318;SDS011;32042;50.916;2.926;2024-03-22T10:41:02;17.63;;;7.07;;
46318;SDS011;32042;50.916;2.926;2024-03-22T10:43:28;14.40;;;8.30;;
46318;SDS011;32042;50.916;2.926;2024-03-22T10:45:55;15.03;;;7.73;;
46318;SDS011;32042;50.916;2.926;2024-03-22T10:48:22;9.03;;;4.07;;
46318;SDS011;32042;50.916;2.926;2024-03-22T10:50:50;15.50;;;8.20;;
46318;SDS011;32042;50.916;2.926;2024-03-22T10:53:19;13.70;;;7.13;;
46318;SDS011;32042;50.916;2.926;2024-03-22T10:55:49;8.37;;;6.97;;
46318;SDS011;32042;50.916;2.926;2024-03-22T10:58:16;13.83;;;7.50;;
46318;SDS011;32042;50.916;2.926;2024-03-22T11:00:42;11.07;;;5.50;;
46318;SDS011;32042;50.916;2.926;2024-03-22T11:03:09;10.60;;;6.10;;
46318;SDS011;32042;50.916;2.926;2024-03-22T11:05:45;13.97;;;6.90;;
46318;SDS011;32042;50.916;2.926;2024-03-22T11:08:13;14.47;;;7.50;;
46318;SDS011;32042;50.916;2.926;2024-03-22T11:10:39;8.73;;;6.73;;
46318;SDS011;32042;50.916;2.926;2024-03-22T11:13:06;16.20;;;7.33;;
46318;SDS011;32042;50.916;2.926;2024-03-22T11:15:33;9.50;;;6.03;;
46318;SDS011;32042;50.916;2.926;2024-03-22T11:18:00;14.20;;;6.10;;
46318;SDS011;32042;50.916;2.926;2024-03-22T11:20:29;15.60;;;6.23;;
46318;SDS011;32042;50.916;2.926;2024-03-22T11:22:56;13.83;;;6.87;;
46318;SDS011;32042;50.916;2.926;2024-03-22T11:25:22;6.83;;;4.70;;
46318;SDS011;32042;50.916;2.926;2024-03-22T11:27:48;6.70;;;5.60;;
46318;SDS011;32042;50.916;2.926;2024-03-22T11:30:17;8.50;;;5.43;;
46318;SDS011;32042;50.916;2.926;2024-03-22T11:32:43;8.97;;;6.23;;
46318;SDS011;32042;50.916;2.926;2024-03-22T11:35:13;8.87;;;5.50;;
46318;SDS011;32042;50.916;2.926;2024-03-22T11:37:39;10.73;;;6.50;;
46318;SDS011;32042;50.916;2.926;2024-03-22T11:40:06;9.73;;;6.27;;
46318;SDS011;32042;50.916;2.926;2024-03-22T11:42:35;10.50;;;5.60;;
46318;SDS011;32042;50.916;2.926;2024-03-22T11:45:02;13.20;;;6.20;;
46318;SDS011;32042;50.916;2.926;2024-03-22T11:47:28;11.17;;;6.83;;
46318;SDS011;32042;50.916;2.926;2024-03-22T11:49:54;13.60;;;6.40;;
46318;SDS011;32042;50.916;2.926;2024-03-22T11:52:27;9.27;;;5.63;;
46318;SDS011;32042;50.916;2.926;2024-03-22T11:54:53;8.07;;;4.90;;
46318;SDS011;32042;50.916;2.926;2024-03-22T11:57:23;11.27;;;6.53;;
46318;SDS011;32042;50.916;2.926;2024-03-22T11:59:50;8.30;;;6.10;;
46318;SDS011;32042;50.916;2.926;2024-03-22T12:02:17;7.53;;;6.70;;
46318;SDS011;32042;50.916;2.926;2024-03-22T12:04:45;7.97;;;7.13;;
46318;SDS011;32042;50.916;2.926;2024-03-22T12:07:12;12.87;;;6.90;;
46318;SDS011;32042;50.916;2.926;2024-03-22T12:09:40;9.40;;;6.97;;
46318;SDS011;32042;50.916;2.926;2024-03-22T12:12:07;12.37;;;7.53;;
46318;SDS011;32042;50.916;2.926;2024-03-22T12:14:34;7.23;;;6.37;;
46318;SDS011;32042;50.916;2.926;2024-03-22T12:17:01;8.93;;;6.33;;
46318;SDS011;32042;50.916;2.926;2024-03-22T12:19:27;8.87;;;6.23;;
46318;SDS011;32042;50.916;2.926;2024-03-22T12:21:53;9.00;;;6.67;;
46318;SDS011;32042;50.916;2.926;2024-03-22T12:24:20;10.87;;;6.07;;
46318;SDS011;32042;50.916;2.926;2024-03-22T12:26:46;11.77;;;5.83;;
46318;SDS011;32042;50.916;2.926;2024-03-22T12:29:13;6.83;;;6.17;;
46318;SDS011;32042;50.916;2.926;2024-03-22T12:31:39;6.80;;;5.60;;
46318;SDS011;32042;50.916;2.926;2024-03-22T12:34:06;10.90;;;6.90;;
46318;SDS011;32042;50.916;2.926;2024-03-22T12:36:32;5.53;;;4.90;;
46318;SDS011;32042;50.916;2.926;2024-03-22T12:38:58;5.17;;;4.63;;
46318;SDS011;32042;50.916;2.926;2024-03-22T12:41:24;5.27;;;4.53;;
46318;SDS011;32042;50.916;2.926;2024-03-22T12:43:50;8.67;;;5.80;;
46318;SDS011;32042;50.916;2.926;2024-03-22T12:46:16;9.97;;;6.30;;
46318;SDS011;32042;50.916;2.926;2024-03-22T12:48:42;8.47;;;5.57;;
46318;SDS011;32042;50.916;2.926;2024-03-22T12:51:08;7.43;;;5.23;;
46318;SDS011;32042;50.916;2.926;2024-03-22T12:53:35;7.00;;;4.97;;
46318;SDS011;32042;50.916;2.926;2024-03-22T12:56:01;5.87;;;5.37;;
46318;SDS011;32042;50.916;2.926;2024-03-22T12:58:29;8.50;;;5.97;;
46318;SDS011;32042;50.916;2.926;2024-03-22T13:00:55;6.80;;;5.67;;
46318;SDS011;32042;50.916;2.926;2024-03-22T13:03:21;5.53;;;4.57;;
46318;SDS011;32042;50.916;2.926;2024-03-22T13:05:47;4.83;;;4.40;;
46318;SDS011;32042;50.916;2.926;2024-03-22T13:08:14;6.47;;;4.30;;
46318;SDS011;32042;50.916;2.926;2024-03-22T13:10:40;4.83;;;4.33;;
46318;SDS011;32042;50.916;2.926;2024-03-22T13:13:09;7.30;;;5.37;;
46318;SDS011;32042;50.916;2.926;2024-03-22T13:15:35;5.47;;;4.70;;
46318;SDS011;32042;50.916;2.926;2024-03-22T13:18:05;5.87;;;4.50;;
46318;SDS011;32042;50.916;2.926;2024-03-22T13:20:31;5.33;;;4.63;;
46318;SDS011;32042;50.916;2.926;2024-03-22T13:22:57;4.93;;;4.40;;
46318;SDS011;32042;50.916;2.926;2024-03-22T13:25:23;5.53;;;4.30;;
46318;SDS011;32042;50.916;2.926;2024-03-22T13:27:49;10.10;;;4.70;;
46318;SDS011;32042;50.916;2.926;2024-03-22T13:30:15;5.97;;;4.03;;
46318;SDS011;32042;50.916;2.926;2024-03-22T13:32:41;4.20;;;3.83;;
46318;SDS011;32042;50.916;2.926;2024-03-22T13:35:07;5.80;;;4.07;;
46318;SDS011;32042;50.916;2.926;2024-03-22T13:37:34;6.60;;;3.63;;
46318;SDS011;32042;50.916;2.926;2024-03-22T13:40:00;6.77;;;5.53;;
46318;SDS011;32042;50.916;2.926;2024-03-22T13:42:26;5.00;;;4.47;;
46318;SDS011;32042;50.916;2.926;2024-03-22T13:44:52;5.10;;;4.13;;
46318;SDS011;32042;50.916;2.926;2024-03-22T13:47:18;8.10;;;5.07;;
46318;SDS011;32042;50.916;2.926;2024-03-22T13:49:44;5.73;;;4.70;;
46318;SDS011;32042;50.916;2.926;2024-03-22T13:52:10;5.27;;;4.60;;
46318;SDS011;32042;50.916;2.926;2024-03-22T13:54:36;6.13;;;4.80;;
46318;SDS011;32042;50.916;2.926;2024-03-22T13:57:02;5.73;;;5.13;;
46318;SDS011;32042;50.916;2.926;2024-03-22T13:59:29;5.67;;;5.13;;
46318;SDS011;32042;50.916;2.926;2024-03-22T14:01:55;5.60;;;4.50;;
46318;SDS011;32042;50.916;2.926;2024-03-22T14:04:24;4.60;;;4.20;;
46318;SDS011;32042;50.916;2.926;2024-03-22T14:06:54;4.83;;;4.37;;
46318;SDS011;32042;50.916;2.926;2024-03-22T14:09:21;4.77;;;4.03;;
46318;SDS011;32042;50.916;2.926;2024-03-22T14:11:47;4.97;;;4.57;;
46318;SDS011;32042;50.916;2.926;2024-03-22T14:14:14;4.90;;;3.93;;
46318;SDS011;32042;50.916;2.926;2024-03-22T14:16:40;4.07;;;3.60;;
46318;SDS011;32042;50.916;2.926;2024-03-22T14:19:07;4.87;;;4.33;;
46318;SDS011;32042;50.916;2.926;2024-03-22T14:21:36;8.50;;;5.47;;
46318;SDS011;32042;50.916;2.926;2024-03-22T14:24:03;4.47;;;3.17;;
46318;SDS011;32042;50.916;2.926;2024-03-22T14:26:29;4.73;;;4.13;;
46318;SDS011;32042;50.916;2.926;2024-03-22T14:28:56;6.23;;;4.10;;
46318;SDS011;32042;50.916;2.926;2024-03-22T14:31:22;4.73;;;4.30;;
46318;SDS011;32042;50.916;2.926;2024-03-22T14:33:48;5.37;;;4.40;;